createdAt,value
2018-08-25T00:00:15.134Z,7.17
2018-08-25T00:02:45.166Z,7.27
2018-08-25T00:05:14.236Z,7.17
2018-08-25T00:07:43.650Z,6.93
2018-08-25T00:10:12.869Z,8.70
2018-08-25T00:12:41.291Z,6.47
2018-08-25T00:15:10.538Z,7.50
2018-08-25T00:17:39.892Z,7.10
2018-08-25T00:20:09.290Z,6.50
2018-08-25T00:22:38.676Z,7.40
2018-08-25T00:25:08.035Z,6.90
2018-08-25T00:27:37.290Z,6.53
2018-08-25T00:31:09.733Z,6.00
2018-08-25T00:33:38.220Z,6.47
2018-08-25T00:36:07.597Z,7.40
2018-08-25T00:38:35.946Z,6.30
2018-08-25T00:41:04.278Z,6.93
2018-08-25T00:43:39.354Z,8.40
2018-08-25T00:46:08.703Z,7.93
2018-08-25T00:48:38.112Z,6.80
2018-08-25T00:51:06.460Z,7.40
2018-08-25T00:53:36.112Z,8.53
2018-08-25T00:56:05.765Z,8.33
2018-08-25T00:58:34.961Z,8.20
2018-08-25T01:01:04.850Z,9.50
2018-08-25T01:03:34.189Z,8.97
2018-08-25T01:06:03.536Z,8.47
2018-08-25T01:08:31.873Z,8.63
2018-08-25T01:11:01.086Z,8.60
2018-08-25T01:13:30.317Z,9.00
2018-08-25T01:15:59.702Z,8.27
2018-08-25T01:18:29.047Z,9.80
2018-08-25T01:20:58.295Z,9.20
2018-08-25T01:23:27.629Z,9.00
2018-08-25T01:25:55.979Z,8.57
2018-08-25T01:28:25.279Z,9.50
2018-08-25T01:30:54.682Z,8.17
2018-08-25T01:33:23.909Z,7.53
2018-08-25T01:35:53.305Z,8.47
2018-08-25T01:38:21.754Z,8.60
2018-08-25T01:40:51.163Z,8.37
2018-08-25T01:43:20.565Z,7.40
2018-08-25T01:45:50.625Z,8.97
2018-08-25T01:48:18.973Z,9.33
2018-08-25T01:50:47.460Z,9.30
2018-08-25T01:53:18.686Z,9.00
2018-08-25T01:55:48.043Z,8.07
2018-08-25T01:58:17.937Z,9.70
2018-08-25T02:00:48.246Z,9.50
2018-08-25T02:03:17.982Z,7.93
2018-08-25T02:05:47.405Z,9.33
2018-08-25T02:08:18.056Z,9.50
2018-08-25T02:10:46.397Z,8.87
2018-08-25T02:13:17.954Z,8.63
2018-08-25T02:15:54.152Z,9.93
2018-08-25T02:18:22.481Z,8.03
2018-08-25T02:20:52.003Z,8.83
2018-08-25T02:23:21.849Z,9.97
2018-08-25T02:25:50.281Z,8.80
2018-08-25T02:28:20.557Z,9.33
2018-08-25T02:30:49.740Z,8.53
2018-08-25T02:33:20.458Z,9.07
2018-08-25T02:35:49.929Z,8.70
2018-08-25T02:38:20.363Z,8.43
2018-08-25T02:40:49.454Z,8.07
2018-08-25T02:43:19.757Z,8.57
2018-08-25T02:45:49.732Z,8.33
2018-08-25T02:48:19.032Z,9.30
2018-08-25T02:50:48.017Z,9.60
2018-08-25T02:53:17.637Z,9.60
2018-08-25T02:55:46.854Z,8.17
2018-08-25T02:58:16.168Z,8.57
2018-08-25T03:00:46.452Z,9.70
2018-08-25T03:03:15.873Z,8.30
2018-08-25T03:05:45.369Z,9.00
2018-08-25T03:08:14.484Z,9.07
2018-08-25T03:10:42.873Z,9.77
2018-08-25T03:13:11.211Z,9.23
2018-08-25T03:15:39.541Z,8.70
2018-08-25T03:18:07.924Z,8.87
2018-08-25T03:20:36.281Z,9.53
2018-08-25T03:23:04.621Z,8.77
2018-08-25T03:25:33.041Z,8.93
2018-08-25T03:28:01.412Z,8.77
2018-08-25T03:30:29.752Z,8.53
2018-08-25T03:32:58.097Z,8.47
2018-08-25T03:35:26.422Z,9.20
2018-08-25T03:37:54.853Z,8.80
2018-08-25T03:40:23.196Z,8.13
2018-08-25T03:42:51.549Z,8.63
2018-08-25T03:45:20.825Z,8.63
2018-08-25T03:47:49.919Z,9.57
2018-08-25T03:50:19.173Z,9.67
2018-08-25T03:52:48.037Z,10.00
2018-08-25T03:55:16.392Z,10.00
2018-08-25T03:57:45.725Z,10.30
2018-08-25T04:00:15.101Z,10.40
2018-08-25T04:02:44.201Z,11.80
2018-08-25T04:05:13.281Z,10.23
2018-08-25T04:07:41.886Z,9.77
2018-08-25T04:10:11.143Z,9.60
2018-08-25T04:12:40.528Z,8.30
2018-08-25T04:15:09.734Z,9.03
2018-08-25T04:17:39.078Z,9.87
2018-08-25T04:20:07.527Z,8.93
2018-08-25T04:22:35.868Z,9.77
2018-08-25T04:25:04.465Z,9.20
2018-08-25T04:27:32.841Z,9.73
2018-08-25T04:30:01.174Z,9.37
2018-08-25T04:32:29.515Z,8.83
2018-08-25T04:34:58.833Z,8.33
2018-08-25T04:37:27.303Z,8.67
2018-08-25T04:39:55.645Z,9.13
2018-08-25T04:42:23.969Z,9.03
2018-08-25T04:44:52.293Z,9.90
2018-08-25T04:47:20.652Z,12.13
2018-08-25T04:49:49.625Z,12.00
2018-08-25T04:52:18.797Z,12.03
2018-08-25T04:54:47.145Z,12.10
2018-08-25T04:57:16.229Z,12.53
2018-08-25T04:59:45.213Z,11.57
2018-08-25T05:02:14.658Z,13.20
2018-08-25T05:04:44.155Z,13.20
2018-08-25T05:07:14.278Z,12.63
2018-08-25T05:09:43.438Z,15.00
2018-08-25T05:12:11.757Z,11.73
2018-08-25T05:14:40.229Z,12.70
2018-08-25T05:17:08.645Z,12.60
2018-08-25T05:19:37.069Z,12.17
2018-08-25T05:22:05.501Z,11.63
2018-08-25T05:24:33.781Z,11.90
2018-08-25T05:27:02.123Z,11.77
2018-08-25T05:29:30.452Z,12.00
2018-08-25T05:31:58.792Z,11.53
2018-08-25T05:34:27.183Z,11.27
2018-08-25T05:36:55.509Z,10.80
2018-08-25T05:39:23.900Z,12.27
2018-08-25T05:41:52.313Z,11.17
2018-08-25T05:44:20.727Z,11.70
2018-08-25T05:46:49.602Z,10.80
2018-08-25T05:49:19.258Z,12.70
2018-08-25T05:51:48.052Z,11.60
2018-08-25T05:54:16.393Z,12.10
2018-08-25T05:56:46.036Z,11.77
2018-08-25T05:59:15.841Z,12.13
2018-08-25T06:01:45.184Z,11.10
2018-08-25T06:04:15.098Z,10.53
2018-08-25T06:06:44.056Z,12.63
2018-08-25T06:09:14.858Z,10.97
2018-08-25T06:11:45.396Z,11.40
2018-08-25T06:14:14.453Z,12.67
2018-08-25T06:16:44.510Z,12.17
2018-08-25T06:19:12.933Z,11.30
2018-08-25T06:21:41.401Z,11.70
2018-08-25T06:24:09.743Z,11.27
2018-08-25T06:26:38.085Z,11.40
2018-08-25T06:29:06.533Z,12.20
2018-08-25T06:31:34.909Z,13.90
2018-08-25T06:34:03.328Z,13.20
2018-08-25T06:36:31.758Z,16.43
2018-08-25T06:39:00.277Z,12.77
2018-08-25T06:41:28.620Z,15.20
2018-08-25T06:43:57.068Z,13.60
2018-08-25T06:46:25.477Z,14.30
2018-08-25T06:48:53.841Z,13.70
2018-08-25T06:51:22.177Z,14.43
2018-08-25T06:53:51.332Z,13.03
2018-08-25T06:56:20.835Z,14.53
2018-08-25T06:58:49.171Z,14.00
2018-08-25T07:01:18.138Z,14.83
2018-08-25T07:03:46.558Z,14.30
2018-08-25T07:06:15.577Z,14.30
2018-08-25T07:08:43.922Z,13.63
2018-08-25T07:11:12.310Z,12.53
2018-08-25T07:13:40.663Z,15.40
2018-08-25T07:16:09.003Z,15.40
2018-08-25T07:18:37.436Z,14.07
2018-08-25T07:21:05.841Z,14.57
2018-08-25T07:23:34.212Z,14.07
2018-08-25T07:26:02.542Z,14.97
2018-08-25T07:28:30.960Z,12.83
2018-08-25T07:31:00.325Z,13.57
2018-08-25T07:33:28.673Z,14.07
2018-08-25T07:35:57.082Z,13.30
2018-08-25T07:38:25.642Z,11.87
2018-08-25T07:40:53.915Z,11.80
2018-08-25T07:43:22.316Z,11.73
2018-08-25T07:45:51.642Z,13.03
2018-08-25T07:48:20.685Z,13.00
2018-08-25T07:50:49.956Z,12.20
2018-08-25T07:53:19.140Z,13.03
2018-08-25T07:55:48.116Z,11.37
2018-08-25T07:58:16.531Z,12.10
2018-08-25T08:00:45.561Z,11.93
2018-08-25T08:03:14.973Z,10.03
2018-08-25T08:05:44.285Z,10.20
2018-08-25T08:08:13.359Z,9.47
2018-08-25T08:10:41.765Z,10.23
2018-08-25T08:13:10.081Z,9.87
2018-08-25T08:15:38.464Z,10.60
2018-08-25T08:18:07.918Z,9.40
2018-08-25T08:20:36.261Z,10.20
2018-08-25T08:23:04.598Z,9.30
2018-08-25T08:25:33.917Z,10.23
2018-08-25T08:28:02.487Z,9.47
2018-08-25T08:30:31.954Z,10.17
2018-08-25T08:33:00.358Z,9.17
2018-08-25T08:35:29.637Z,9.30
2018-08-25T08:37:59.008Z,8.40
2018-08-25T08:40:28.278Z,8.80
2018-08-25T08:42:56.614Z,6.97
2018-08-25T08:45:25.005Z,7.17
2018-08-25T08:47:53.324Z,6.77
2018-08-25T08:50:21.815Z,7.77
2018-08-25T08:52:51.245Z,6.97
2018-08-25T08:55:22.204Z,7.20
2018-08-25T08:57:51.845Z,6.07
2018-08-25T09:00:21.654Z,7.43
2018-08-25T09:02:50.932Z,5.90
2018-08-25T09:05:20.136Z,5.57
2018-08-25T09:07:49.997Z,4.90
2018-08-25T09:10:20.095Z,4.80
2018-08-25T09:12:50.469Z,5.00
2018-08-25T09:15:19.280Z,4.70
2018-08-25T09:17:49.127Z,5.43
2018-08-25T09:20:19.776Z,6.30
2018-08-25T09:22:48.558Z,6.90
2018-08-25T09:25:17.920Z,7.20
2018-08-25T09:27:47.166Z,6.07
2018-08-25T09:30:16.362Z,6.70
2018-08-25T09:32:46.602Z,6.23
2018-08-25T09:35:15.822Z,5.23
2018-08-25T09:37:45.813Z,4.40
2018-08-25T09:40:15.888Z,3.63
2018-08-25T09:42:45.835Z,3.70
2018-08-25T09:45:15.797Z,4.17
2018-08-25T09:47:45.851Z,4.07
2018-08-25T09:50:15.324Z,4.50
2018-08-25T09:52:44.409Z,3.90
2018-08-25T09:55:14.353Z,4.23
2018-08-25T09:57:44.736Z,3.97
2018-08-25T10:00:13.836Z,3.83
2018-08-25T10:02:44.368Z,4.53
2018-08-25T10:05:14.459Z,3.60
2018-08-25T10:07:43.971Z,4.63
2018-08-25T10:10:14.414Z,3.60
2018-08-25T10:12:44.505Z,3.00
2018-08-25T10:15:14.333Z,3.33
2018-08-25T10:17:44.409Z,4.00
2018-08-25T10:20:14.333Z,3.20
2018-08-25T10:22:43.453Z,3.00
2018-08-25T10:25:13.728Z,3.87
2018-08-25T10:27:42.962Z,3.87
2018-08-25T10:30:12.317Z,3.60
2018-08-25T10:32:41.475Z,3.40
2018-08-25T10:35:10.745Z,3.00
2018-08-25T10:37:39.088Z,3.80
2018-08-25T10:40:08.458Z,3.57
2018-08-25T10:42:37.710Z,3.87
2018-08-25T10:45:06.505Z,4.00
2018-08-25T10:47:35.723Z,4.50
2018-08-25T10:50:05.169Z,4.40
2018-08-25T10:52:33.545Z,3.70
2018-08-25T10:55:02.909Z,3.90
2018-08-25T10:57:31.325Z,3.90
2018-08-25T11:00:00.834Z,3.80
2018-08-25T11:02:29.525Z,3.50
2018-08-25T11:04:58.856Z,3.47
2018-08-25T11:07:27.202Z,2.97
2018-08-25T11:09:56.543Z,3.47
2018-08-25T11:12:25.753Z,4.40
2018-08-25T11:14:54.956Z,3.67
2018-08-25T11:17:24.156Z,3.20
2018-08-25T11:19:52.528Z,3.20
2018-08-25T11:22:21.551Z,3.60
2018-08-25T11:24:50.577Z,4.00
2018-08-25T11:27:19.125Z,3.27
2018-08-25T11:29:47.441Z,3.60
2018-08-25T11:32:16.973Z,2.87
2018-08-25T11:34:46.349Z,3.50
2018-08-25T11:37:15.353Z,2.90
2018-08-25T11:39:44.339Z,3.37
2018-08-25T11:42:14.349Z,3.07
2018-08-25T11:44:43.720Z,3.20
2018-08-25T11:47:19.240Z,3.83
2018-08-25T11:49:48.677Z,3.67
2018-08-25T11:52:17.029Z,3.50
2018-08-25T11:54:46.201Z,3.77
2018-08-25T11:57:15.512Z,3.67
2018-08-25T11:59:43.906Z,3.13
2018-08-25T12:02:14.101Z,3.33
2018-08-25T12:04:43.557Z,3.60
2018-08-25T12:07:12.825Z,3.77
2018-08-25T12:09:42.265Z,3.50
2018-08-25T12:12:10.593Z,3.40
2018-08-25T12:14:39.923Z,3.50
2018-08-25T12:17:08.297Z,2.90
2018-08-25T12:19:37.652Z,3.00
2018-08-25T12:22:06.322Z,2.93
2018-08-25T12:24:35.670Z,2.63
2018-08-25T12:27:05.404Z,2.27
2018-08-25T12:29:34.621Z,2.00
2018-08-25T12:32:03.853Z,2.17
2018-08-25T12:34:33.201Z,1.63
2018-08-25T12:37:02.397Z,1.40
2018-08-25T12:39:31.696Z,1.80
2018-08-25T12:42:01.145Z,1.73
2018-08-25T12:44:30.489Z,1.37
2018-08-25T12:46:59.929Z,1.30
2018-08-25T12:49:29.177Z,1.60
2018-08-25T12:51:58.490Z,1.20
2018-08-25T12:54:27.862Z,1.03
2018-08-25T12:56:57.217Z,1.70
2018-08-25T12:59:27.454Z,1.60
2018-08-25T13:01:56.652Z,1.77
2018-08-25T13:04:26.845Z,1.27
2018-08-25T13:06:56.076Z,1.80
2018-08-25T13:09:25.616Z,1.83
2018-08-25T13:11:54.950Z,1.40
2018-08-25T13:14:24.162Z,1.83
2018-08-25T13:16:53.363Z,1.83
2018-08-25T13:19:22.643Z,1.87
2018-08-25T13:21:51.897Z,2.80
2018-08-25T13:24:21.378Z,2.73
2018-08-25T13:26:51.223Z,2.30
2018-08-25T13:29:21.344Z,2.10
2018-08-25T13:31:51.141Z,2.43
2018-08-25T13:34:20.479Z,2.37
2018-08-25T13:36:49.395Z,2.60
2018-08-25T13:39:19.741Z,3.37
2018-08-25T13:41:48.078Z,2.40
2018-08-25T13:44:16.437Z,2.27
2018-08-25T13:46:47.000Z,2.37
2018-08-25T13:49:16.554Z,2.70
2018-08-25T13:51:45.506Z,2.10
2018-08-25T13:54:14.050Z,2.10
2018-08-25T13:56:42.385Z,1.87
2018-08-25T13:59:11.041Z,1.93
2018-08-25T14:01:39.433Z,2.23
2018-08-25T14:04:07.778Z,2.03
2018-08-25T14:06:36.117Z,1.80
2018-08-25T14:09:06.195Z,2.17
2018-08-25T14:11:34.522Z,1.97
2018-08-25T14:14:02.874Z,2.10
2018-08-25T14:16:31.353Z,1.90
2018-08-25T14:19:00.390Z,1.47
2018-08-25T14:21:28.833Z,2.00
2018-08-25T14:23:57.185Z,2.00
2018-08-25T14:26:25.540Z,1.80
2018-08-25T14:28:53.910Z,1.40
2018-08-25T14:31:22.233Z,1.90
2018-08-25T14:33:51.441Z,2.40
2018-08-25T14:36:20.386Z,2.57
2018-08-25T14:38:49.599Z,1.80
2018-08-25T14:41:18.367Z,2.07
2018-08-25T14:43:46.689Z,1.83
2018-08-25T14:46:16.412Z,2.40
2018-08-25T14:48:45.761Z,1.70
2018-08-25T14:51:15.157Z,1.90
2018-08-25T14:53:44.676Z,1.40
2018-08-25T14:56:13.536Z,1.80
2018-08-25T14:58:41.861Z,1.83
2018-08-25T15:01:10.321Z,1.80
2018-08-25T15:03:39.449Z,1.70
2018-08-25T15:06:07.805Z,1.73
2018-08-25T15:08:36.281Z,1.73
2018-08-25T15:11:04.620Z,1.80
2018-08-25T15:13:33.002Z,2.00
2018-08-25T15:16:01.341Z,1.83
2018-08-25T15:18:29.973Z,2.20
2018-08-25T15:20:58.318Z,1.70
2018-08-25T15:23:26.641Z,1.40
2018-08-25T15:25:55.092Z,1.40
2018-08-25T15:28:23.425Z,1.70
2018-08-25T15:30:51.770Z,1.80
2018-08-25T15:33:21.256Z,1.23
2018-08-25T15:35:51.450Z,1.40
2018-08-25T15:38:22.311Z,1.10
2018-08-25T15:40:51.685Z,1.53
2018-08-25T15:43:21.453Z,1.27
2018-08-25T15:45:51.713Z,1.13
2018-08-25T15:48:21.064Z,1.80
2018-08-25T15:50:51.154Z,1.80
2018-08-25T15:53:21.402Z,1.27
2018-08-25T15:55:50.670Z,1.53
2018-08-25T15:58:20.778Z,1.13
2018-08-25T16:00:50.377Z,1.50
2018-08-25T16:03:20.418Z,1.00
2018-08-25T16:05:50.479Z,1.50
2018-08-25T16:08:20.684Z,1.23
2018-08-25T16:10:50.544Z,1.43
2018-08-25T16:13:19.229Z,1.40
2018-08-25T16:15:49.457Z,1.93
2018-08-25T16:18:19.312Z,1.20
2018-08-25T16:20:49.103Z,1.50
2018-08-25T16:23:17.553Z,1.43
2018-08-25T16:25:46.974Z,1.47
2018-08-25T16:28:16.241Z,1.37
2018-08-25T16:30:45.753Z,1.67
2018-08-25T16:33:15.689Z,1.10
2018-08-25T16:35:46.265Z,1.20
2018-08-25T16:38:16.003Z,1.60
2018-08-25T16:40:46.318Z,1.10
2018-08-25T16:43:16.068Z,1.23
2018-08-25T16:45:45.355Z,1.23
2018-08-25T16:48:15.546Z,1.30
2018-08-25T16:50:43.937Z,1.50
2018-08-25T16:53:12.781Z,1.70
2018-08-25T16:55:41.110Z,1.70
2018-08-25T16:58:10.230Z,1.77
2018-08-25T17:00:38.552Z,1.50
2018-08-25T17:03:07.877Z,1.30
2018-08-25T17:05:36.305Z,1.27
2018-08-25T17:08:05.517Z,0.83
2018-08-25T17:10:33.854Z,1.00
2018-08-25T17:13:02.325Z,1.10
2018-08-25T17:15:30.657Z,0.93
2018-08-25T17:17:59.888Z,0.87
2018-08-25T17:20:29.325Z,0.87
2018-08-25T17:22:58.661Z,0.90
2018-08-25T17:25:28.011Z,0.80
2018-08-25T17:27:56.507Z,1.00
2018-08-25T17:30:24.836Z,0.80
2018-08-25T17:32:53.974Z,0.90
2018-08-25T17:35:22.337Z,0.80
2018-08-25T17:37:51.581Z,1.13
2018-08-25T17:40:22.465Z,1.00
2018-08-25T17:42:52.309Z,1.03
2018-08-25T17:45:21.789Z,1.00
2018-08-25T17:47:51.132Z,1.43
2018-08-25T17:50:20.684Z,1.20
2018-08-25T17:52:50.673Z,1.20
2018-08-25T17:55:20.942Z,1.17
2018-08-25T17:57:50.162Z,0.90
2018-08-25T18:00:19.635Z,1.20
2018-08-25T18:02:48.522Z,1.80
2018-08-25T18:05:16.923Z,1.57
2018-08-25T18:07:47.137Z,1.27
2018-08-25T18:10:16.030Z,1.73
2018-08-25T18:12:45.864Z,1.87
2018-08-25T18:15:15.350Z,1.77
2018-08-25T18:17:43.862Z,1.50
2018-08-25T18:20:12.205Z,1.70
2018-08-25T18:22:40.554Z,1.73
2018-08-25T18:25:09.934Z,1.13
2018-08-25T18:27:38.382Z,1.33
2018-08-25T18:30:16.333Z,2.50
2018-08-25T18:32:46.709Z,3.97
2018-08-25T18:35:16.632Z,4.27
2018-08-25T18:37:45.857Z,3.80
2018-08-25T18:40:15.117Z,3.73
2018-08-25T18:42:45.637Z,2.20
2018-08-25T18:45:15.929Z,2.70
2018-08-25T18:47:44.949Z,5.67
2018-08-25T18:50:18.531Z,2.40
2018-08-25T18:52:46.896Z,2.23
2018-08-25T18:55:16.493Z,2.00
2018-08-25T18:57:45.881Z,2.30
2018-08-25T19:00:15.909Z,2.00
2018-08-25T19:02:45.499Z,1.90
2018-08-25T19:05:13.881Z,2.20
2018-08-25T19:07:44.425Z,1.90
2018-08-25T19:10:14.509Z,1.80
2018-08-25T19:12:43.890Z,1.70
2018-08-25T19:15:14.375Z,2.07
2018-08-25T19:17:44.542Z,1.60
2018-08-25T19:20:13.874Z,1.60
2018-08-25T19:22:42.993Z,2.00
2018-08-25T19:25:12.193Z,1.73
2018-08-25T19:27:41.532Z,1.80
2018-08-25T19:30:10.912Z,1.67
2018-08-25T19:32:39.248Z,1.70
2018-08-25T19:35:08.633Z,2.00
2018-08-25T19:37:37.100Z,2.03
2018-08-25T19:40:06.636Z,1.70
2018-08-25T19:42:35.920Z,2.00
2018-08-25T19:45:05.424Z,2.00
2018-08-25T19:47:34.658Z,1.80
2018-08-25T19:50:03.001Z,1.50
2018-08-25T19:52:32.438Z,1.70
2018-08-25T19:55:01.801Z,1.80
2018-08-25T19:57:30.341Z,1.70
2018-08-25T19:59:58.665Z,1.90
2018-08-25T20:02:27.005Z,1.77
2018-08-25T20:04:55.476Z,1.43
2018-08-25T20:07:23.813Z,1.87
2018-08-25T20:09:52.521Z,1.90
2018-08-25T20:12:22.473Z,1.90
2018-08-25T20:14:51.789Z,1.60
2018-08-25T20:17:20.892Z,2.10
2018-08-25T20:19:49.714Z,1.87
2018-08-25T20:22:19.772Z,1.87
2018-08-25T20:24:48.697Z,2.20
2018-08-25T20:27:17.013Z,1.97
2018-08-25T20:29:46.271Z,1.90
2018-08-25T20:32:15.776Z,1.70
2018-08-25T20:34:45.733Z,1.77
2018-08-25T20:37:15.184Z,2.10
2018-08-25T20:39:45.305Z,2.30
2018-08-25T20:42:14.461Z,1.77
2018-08-25T20:44:42.881Z,2.23
2018-08-25T20:47:11.265Z,2.03
2018-08-25T20:49:39.593Z,2.00
2018-08-25T20:52:08.832Z,1.60
2018-08-25T20:54:37.462Z,2.30
2018-08-25T20:57:05.921Z,2.17
2018-08-25T20:59:34.314Z,2.30
2018-08-25T21:02:03.732Z,2.40
2018-08-25T21:04:32.249Z,1.60
2018-08-25T21:07:00.669Z,1.90
2018-08-25T21:09:30.060Z,1.70
2018-08-25T21:11:58.414Z,2.27
2018-08-25T21:14:26.817Z,1.80
2018-08-25T21:16:55.139Z,1.70
2018-08-25T21:19:23.539Z,1.90
2018-08-25T21:21:52.766Z,1.53
2018-08-25T21:24:21.980Z,1.63
2018-08-25T21:26:51.503Z,1.60
2018-08-25T21:29:20.669Z,1.50
2018-08-25T21:31:49.665Z,1.70
2018-08-25T21:34:20.041Z,1.60
2018-08-25T21:36:49.412Z,2.00
2018-08-25T21:39:18.829Z,1.43
2018-08-25T21:41:48.283Z,1.97
2018-08-25T21:44:16.605Z,1.67
2018-08-25T21:46:46.432Z,1.60
2018-08-25T21:49:15.789Z,1.50
2018-08-25T21:51:45.143Z,1.80
2018-08-25T21:54:14.683Z,1.90
2018-08-25T21:56:45.216Z,1.80
2018-08-25T21:59:15.174Z,1.73
2018-08-25T22:01:50.985Z,1.70
2018-08-25T22:04:20.450Z,1.80
2018-08-25T22:06:50.770Z,1.60
2018-08-25T22:09:21.088Z,1.53
2018-08-25T22:11:49.918Z,2.00
2018-08-25T22:14:18.659Z,1.53
2018-08-25T22:16:48.760Z,1.70
2018-08-25T22:19:19.111Z,1.73
2018-08-25T22:21:48.846Z,1.63
2018-08-25T22:24:19.203Z,1.60
2018-08-25T22:26:49.750Z,1.80
2018-08-25T22:29:19.810Z,1.63
2018-08-25T22:31:48.567Z,1.90
2018-08-25T22:34:17.905Z,1.60
2018-08-25T22:36:48.254Z,1.40
2018-08-25T22:39:17.461Z,1.37
2018-08-25T22:41:47.717Z,1.70
2018-08-25T22:44:17.181Z,1.57
2018-08-25T22:46:46.560Z,1.30
2018-08-25T22:49:15.934Z,1.57
2018-08-25T22:51:46.322Z,1.77
2018-08-25T22:54:16.073Z,1.50
2018-08-25T22:56:46.529Z,2.30
2018-08-25T22:59:15.888Z,1.90
2018-08-25T23:01:45.275Z,2.43
2018-08-25T23:04:15.214Z,2.10
2018-08-25T23:06:44.556Z,2.10
2018-08-25T23:09:14.532Z,3.23
2018-08-25T23:11:44.500Z,2.57
2018-08-25T23:14:14.420Z,2.37
2018-08-25T23:16:44.625Z,2.70
2018-08-25T23:19:12.952Z,2.60
2018-08-25T23:21:42.295Z,2.30
2018-08-25T23:24:10.617Z,3.43
2018-08-25T23:26:39.965Z,3.90
2018-08-25T23:29:08.306Z,3.20
2018-08-25T23:31:37.565Z,3.30
2018-08-25T23:34:05.985Z,5.17
2018-08-25T23:36:35.240Z,3.70
2018-08-25T23:39:06.169Z,4.73
2018-08-25T23:41:35.781Z,3.30
2018-08-25T23:44:05.047Z,3.03
2018-08-25T23:46:34.357Z,3.30
2018-08-25T23:49:03.569Z,3.50
2018-08-25T23:51:32.908Z,3.73
2018-08-25T23:54:01.902Z,3.50
2018-08-25T23:56:31.141Z,3.10
2018-08-25T23:59:00.574Z,3.23
